createdAt,value
2019-02-07T00:03:06.254Z,99.90
2019-02-07T00:07:04.816Z,99.90
2019-02-07T00:11:03.229Z,99.60
2019-02-07T00:15:01.625Z,99.20
2019-02-07T00:19:00.588Z,99.00
2019-02-07T00:22:58.993Z,99.20
2019-02-07T00:26:57.345Z,98.40
2019-02-07T00:30:55.726Z,98.80
2019-02-07T00:34:54.126Z,99.40
2019-02-07T00:42:56.820Z,99.50
2019-02-07T00:46:55.169Z,99.70
2019-02-07T00:50:53.539Z,99.90
2019-02-07T00:54:51.947Z,99.90
2019-02-07T00:58:50.315Z,99.90
2019-02-07T01:02:50.716Z,99.90
2019-02-07T01:06:49.107Z,99.90
2019-02-07T01:10:50.211Z,99.90
2019-02-07T01:14:48.614Z,99.90
2019-02-07T01:18:48.608Z,99.90
2019-02-07T01:23:33.426Z,99.90
2019-02-07T01:26:47.044Z,99.90
2019-02-07T01:30:45.408Z,99.90
2019-02-07T01:34:43.803Z,99.90
2019-02-07T01:38:42.199Z,99.90
2019-02-07T01:42:40.571Z,99.90
2019-02-07T01:46:38.979Z,99.90
2019-02-07T01:50:37.352Z,99.90
2019-02-07T01:54:35.720Z,99.90
2019-02-07T01:58:34.100Z,99.90
2019-02-07T02:02:32.467Z,99.90
2019-02-07T02:06:30.873Z,99.90
2019-02-07T02:10:29.746Z,99.90
2019-02-07T02:14:28.298Z,99.90
2019-02-07T02:18:27.109Z,99.90
2019-02-07T02:22:25.472Z,99.90
2019-02-07T02:26:23.855Z,99.90
2019-02-07T02:30:25.137Z,99.90
2019-02-07T02:34:23.493Z,99.90
2019-02-07T02:38:21.897Z,99.90
2019-02-07T02:42:20.294Z,99.90
2019-02-07T02:46:18.652Z,99.90
2019-02-07T02:50:24.326Z,99.90
2019-02-07T02:54:30.330Z,99.90
2019-02-07T02:58:28.696Z,99.90
2019-02-07T03:02:31.719Z,99.90
2019-02-07T03:06:37.914Z,99.90
2019-02-07T03:10:37.964Z,99.90
2019-02-07T03:14:44.007Z,99.90
2019-02-07T03:18:44.002Z,99.90
2019-02-07T03:22:56.064Z,99.90
2019-02-07T03:27:08.210Z,99.90
2019-02-07T03:31:24.493Z,99.90
2019-02-07T03:35:33.960Z,99.90
2019-02-07T03:39:39.962Z,99.90
2019-02-07T03:43:39.976Z,99.90
2019-02-07T03:47:44.626Z,99.90
2019-02-07T03:52:00.526Z,99.90
2019-02-07T03:56:00.570Z,99.90
2019-02-07T04:00:03.588Z,99.90
2019-02-07T04:04:19.612Z,99.90
2019-02-07T04:08:25.380Z,99.90
2019-02-07T04:12:28.523Z,99.90
2019-02-07T04:16:28.553Z,99.90
2019-02-07T04:20:45.344Z,99.90
2019-02-07T04:24:51.389Z,99.90
2019-02-07T04:29:07.567Z,99.90
2019-02-07T04:33:24.017Z,99.90
2019-02-07T04:37:33.653Z,99.90
2019-02-07T04:41:51.808Z,99.90
2019-02-07T04:45:51.829Z,99.90
2019-02-07T04:49:51.875Z,99.90
2019-02-07T04:54:06.683Z,99.90
2019-02-07T04:58:24.669Z,99.90
2019-02-07T05:02:27.751Z,99.90
2019-02-07T05:06:27.782Z,99.90
2019-02-07T05:10:31.655Z,99.90
2019-02-07T05:14:52.712Z,99.90
2019-02-07T05:18:58.693Z,99.90
2019-02-07T05:23:04.600Z,99.90
2019-02-07T05:27:04.592Z,99.90
2019-02-07T05:31:04.623Z,99.90
2019-02-07T05:35:04.645Z,99.90
2019-02-07T05:39:10.536Z,99.90
2019-02-07T05:43:21.586Z,99.90
2019-02-07T05:47:21.627Z,99.90
2019-02-07T05:51:39.549Z,99.90
2019-02-07T05:55:56.017Z,99.90
2019-02-07T06:00:12.903Z,99.90
2019-02-07T06:04:12.928Z,99.90
2019-02-07T06:08:16.362Z,99.90
2019-02-07T06:12:28.445Z,99.90
2019-02-07T06:16:37.186Z,99.90
2019-02-07T06:20:37.223Z,99.90
2019-02-07T06:24:49.461Z,99.90
2019-02-07T06:29:04.997Z,99.90
2019-02-07T06:33:10.941Z,99.90
2019-02-07T06:37:19.127Z,99.90
2019-02-07T06:41:27.728Z,99.90
2019-02-07T06:45:48.578Z,99.90
2019-02-07T06:49:57.299Z,99.90
2019-02-07T06:54:15.306Z,99.90
2019-02-07T06:58:33.350Z,99.90
2019-02-07T07:02:39.099Z,99.90
2019-02-07T07:06:39.642Z,99.90
2019-02-07T07:10:50.569Z,99.90
2019-02-07T07:14:50.689Z,99.90
2019-02-07T07:19:03.052Z,99.90
2019-02-07T07:23:05.863Z,99.90
2019-02-07T07:27:05.878Z,99.90
2019-02-07T07:31:08.789Z,99.90
2019-02-07T07:35:10.754Z,99.90
2019-02-07T07:39:10.788Z,99.90
2019-02-07T07:43:27.206Z,99.90
2019-02-07T07:47:41.470Z,99.90
2019-02-07T07:51:46.233Z,99.90
2019-02-07T07:55:55.209Z,99.90
2019-02-07T07:59:55.218Z,99.90
2019-02-07T08:03:55.679Z,99.90
2019-02-07T08:08:01.485Z,99.90
2019-02-07T08:12:16.509Z,99.90
2019-02-07T08:16:16.522Z,99.90
2019-02-07T08:20:25.520Z,99.90
2019-02-07T08:24:31.358Z,99.90
2019-02-07T08:28:45.300Z,99.90
2019-02-07T08:33:03.230Z,99.90
2019-02-07T08:37:21.583Z,99.90
2019-02-07T08:41:36.672Z,99.90
2019-02-07T08:45:36.702Z,99.90
2019-02-07T08:49:42.727Z,99.90
2019-02-07T08:53:45.865Z,99.90
2019-02-07T08:57:48.873Z,99.90
2019-02-07T09:02:07.383Z,99.90
2019-02-07T09:06:13.399Z,99.90
2019-02-07T09:10:16.840Z,99.90
2019-02-07T09:14:19.851Z,99.90
2019-02-07T09:18:36.290Z,99.90
2019-02-07T09:22:36.606Z,99.90
2019-02-07T09:26:36.617Z,99.90
2019-02-07T09:30:55.233Z,99.90
2019-02-07T09:35:11.684Z,99.90
2019-02-07T09:39:28.702Z,99.90
2019-02-07T09:43:34.451Z,99.90
2019-02-07T09:47:46.363Z,99.90
2019-02-07T09:51:46.877Z,99.90
2019-02-07T09:55:49.811Z,99.90
2019-02-07T09:59:50.392Z,99.90
2019-02-07T10:03:50.427Z,99.90
2019-02-07T10:08:06.818Z,99.90
2019-02-07T10:12:24.865Z,99.90
2019-02-07T10:16:27.566Z,99.90
2019-02-07T10:20:34.220Z,99.90
2019-02-07T10:24:49.246Z,99.90
2019-02-07T10:28:52.258Z,99.90
2019-02-07T10:32:55.331Z,99.90
2019-02-07T10:37:05.595Z,99.90
2019-02-07T10:41:14.237Z,99.90
2019-02-07T10:45:19.005Z,99.80
2019-02-07T10:49:35.177Z,98.70
2019-02-07T10:53:53.605Z,97.50
2019-02-07T10:57:56.497Z,98.00
2019-02-07T11:02:02.265Z,96.10
2019-02-07T11:06:15.255Z,96.10
2019-02-07T11:10:36.135Z,96.50
2019-02-07T11:14:36.163Z,97.20
2019-02-07T11:18:55.075Z,95.70
2019-02-07T11:22:49.805Z,94.60
2019-02-07T11:26:52.525Z,95.50
2019-02-07T11:30:55.037Z,95.50
2019-02-07T11:35:10.017Z,94.00
2019-02-07T11:39:29.850Z,93.30
2019-02-07T11:43:33.014Z,92.40
2019-02-07T11:47:45.209Z,93.20
2019-02-07T11:51:57.200Z,93.40
2019-02-07T11:56:04.302Z,93.90
2019-02-07T12:00:04.388Z,93.00
2019-02-07T12:04:07.335Z,92.10
2019-02-07T12:08:13.498Z,92.80
2019-02-07T12:12:28.949Z,92.10
2019-02-07T12:16:41.206Z,91.70
2019-02-07T12:20:49.990Z,91.90
2019-02-07T12:25:06.635Z,92.00
2019-02-07T12:29:06.793Z,91.50
2019-02-07T12:33:08.662Z,91.50
2019-02-07T12:37:14.667Z,91.10
2019-02-07T12:41:17.561Z,91.50
2019-02-07T12:45:26.720Z,92.00
2019-02-07T12:49:42.112Z,91.70
2019-02-07T12:53:42.466Z,91.30
2019-02-07T12:58:00.879Z,91.10
2019-02-07T13:02:13.209Z,90.90
2019-02-07T13:06:25.303Z,90.90
2019-02-07T13:10:25.690Z,90.50
2019-02-07T13:14:37.928Z,87.10
2019-02-07T13:18:56.802Z,87.30
2019-02-07T13:22:56.999Z,89.00
2019-02-07T13:27:03.047Z,87.90
2019-02-07T13:31:03.094Z,90.20
2019-02-07T13:35:18.464Z,90.20
2019-02-07T13:39:37.548Z,90.50
2019-02-07T13:43:52.959Z,90.20
2019-02-07T13:47:56.076Z,89.40
2019-02-07T13:52:21.503Z,88.00
2019-02-07T13:56:21.509Z,88.60
2019-02-07T14:00:23.414Z,85.60
2019-02-07T14:04:25.920Z,84.70
2019-02-07T14:08:38.408Z,85.50
2019-02-07T14:12:40.129Z,86.10
2019-02-07T14:16:40.115Z,84.70
2019-02-07T14:20:52.203Z,84.10
2019-02-07T14:25:02.130Z,82.60
2019-02-07T14:29:08.068Z,83.20
2019-02-07T14:33:08.239Z,83.40
2019-02-07T14:37:17.223Z,84.60
2019-02-07T14:41:17.256Z,85.10
2019-02-07T14:45:20.094Z,86.20
2019-02-07T14:49:18.447Z,88.00
2019-02-07T14:53:17.024Z,87.40
2019-02-07T15:01:27.124Z,86.80
2019-02-07T15:05:25.513Z,87.30
2019-02-07T15:09:27.165Z,84.80
2019-02-07T15:13:25.820Z,85.50
2019-02-07T15:17:24.198Z,84.10
2019-02-07T15:21:22.564Z,84.40
2019-02-07T15:25:22.541Z,85.50
2019-02-07T15:29:20.920Z,84.60
2019-02-07T15:33:19.683Z,83.30
2019-02-07T15:37:18.077Z,84.10
2019-02-07T15:41:16.440Z,85.40
2019-02-07T15:45:15.096Z,84.00
2019-02-07T15:49:13.457Z,85.70
2019-02-07T15:53:12.301Z,86.00
2019-02-07T15:57:10.708Z,85.90
2019-02-07T16:01:11.229Z,88.10
2019-02-07T16:05:12.822Z,90.00
2019-02-07T16:09:11.273Z,90.60
2019-02-07T16:13:11.780Z,90.80
2019-02-07T16:17:14.137Z,90.80
2019-02-07T16:21:12.507Z,90.90
2019-02-07T16:25:13.127Z,90.20
2019-02-07T16:29:11.538Z,90.10
2019-02-07T16:33:10.272Z,89.50
2019-02-07T16:37:08.685Z,91.50
2019-02-07T16:41:07.106Z,94.20
2019-02-07T16:45:10.738Z,95.80
2019-02-07T16:49:09.144Z,96.10
2019-02-07T16:53:07.514Z,96.00
2019-02-07T16:57:05.870Z,96.90
2019-02-07T17:01:04.289Z,96.30
2019-02-07T17:05:06.268Z,96.20
2019-02-07T17:09:09.558Z,96.10
2019-02-07T17:13:11.623Z,95.80
2019-02-07T17:17:10.352Z,95.90
2019-02-07T17:21:12.204Z,95.80
2019-02-07T17:25:09.955Z,95.40
2019-02-07T17:29:08.611Z,94.80
2019-02-07T17:33:07.717Z,94.60
2019-02-07T17:37:06.431Z,94.30
2019-02-07T17:41:05.459Z,94.30
2019-02-07T17:45:06.015Z,94.50
2019-02-07T17:49:08.830Z,94.80
2019-02-07T17:53:12.865Z,94.40
2019-02-07T17:57:11.426Z,94.30
2019-02-07T18:01:10.837Z,94.50
2019-02-07T18:05:09.642Z,94.30
2019-02-07T18:09:09.299Z,94.10
2019-02-07T18:13:08.769Z,93.90
2019-02-07T18:17:07.406Z,93.80
2019-02-07T18:21:05.967Z,93.90
2019-02-07T18:25:06.436Z,93.70
2019-02-07T18:29:05.543Z,93.90
2019-02-07T18:33:04.779Z,93.70
2019-02-07T18:37:03.742Z,94.10
2019-02-07T18:41:02.701Z,94.60
2019-02-07T18:45:01.689Z,95.00
2019-02-07T18:49:01.163Z,95.20
2019-02-07T18:53:03.454Z,96.00
2019-02-07T18:57:02.096Z,96.50
2019-02-07T19:01:01.305Z,96.30
2019-02-07T19:05:02.001Z,96.70
2019-02-07T19:09:00.638Z,97.00
2019-02-07T19:12:59.199Z,97.40
2019-02-07T19:16:57.746Z,97.10
2019-02-07T19:20:56.299Z,97.50
2019-02-07T19:24:55.435Z,97.00
2019-02-07T19:28:54.041Z,97.20
2019-02-07T19:32:52.888Z,97.40
2019-02-07T19:36:51.446Z,97.40
2019-02-07T19:40:50.015Z,97.40
2019-02-07T19:44:48.580Z,97.40
2019-02-07T19:48:52.084Z,97.20
2019-02-07T19:52:50.871Z,96.80
2019-02-07T19:56:49.631Z,97.00
2019-02-07T20:00:48.196Z,97.10
2019-02-07T20:04:46.737Z,97.30
2019-02-07T20:08:46.864Z,98.00
2019-02-07T20:12:45.943Z,98.00
2019-02-07T20:16:44.920Z,98.00
2019-02-07T20:20:43.456Z,99.00
2019-02-07T20:28:42.318Z,99.20
2019-02-07T20:32:42.539Z,98.60
2019-02-07T20:36:41.082Z,98.70
2019-02-07T20:40:39.660Z,99.00
2019-02-07T20:44:39.240Z,99.20
2019-02-07T20:48:39.829Z,99.50
2019-02-07T20:52:38.720Z,99.80
2019-02-07T20:56:37.616Z,99.90
2019-02-07T21:00:40.115Z,99.20
2019-02-07T21:04:38.669Z,99.70
2019-02-07T21:08:38.467Z,99.40
2019-02-07T21:12:37.030Z,99.80
2019-02-07T21:16:35.703Z,99.70
2019-02-07T21:20:36.704Z,99.90
2019-02-07T21:24:36.022Z,99.90
2019-02-07T21:28:34.581Z,99.90
2019-02-07T21:32:35.811Z,99.90
2019-02-07T21:36:34.786Z,99.90
2019-02-07T21:40:33.932Z,99.90
2019-02-07T21:44:32.871Z,99.90
2019-02-07T21:48:31.429Z,99.90
2019-02-07T21:52:30.024Z,99.60
2019-02-07T21:56:28.567Z,99.60
2019-02-07T22:00:33.012Z,99.50
2019-02-07T22:04:54.106Z,99.50
2019-02-07T22:08:32.059Z,99.50
2019-02-07T22:12:30.652Z,99.50
2019-02-07T22:16:29.220Z,99.20
2019-02-07T22:20:29.433Z,99.50
2019-02-07T22:24:28.129Z,99.40
2019-02-07T22:28:27.059Z,99.40
2019-02-07T22:32:25.608Z,99.40
2019-02-07T22:36:26.691Z,99.70
2019-02-07T22:40:25.979Z,99.90
2019-02-07T22:44:24.536Z,99.90
2019-02-07T22:48:23.111Z,99.90
2019-02-07T22:52:21.682Z,99.90
2019-02-07T22:56:20.243Z,99.90
2019-02-07T23:00:38.520Z,99.90
2019-02-07T23:04:37.500Z,99.90
2019-02-07T23:08:36.123Z,99.90
2019-02-07T23:16:52.441Z,99.90
2019-02-07T23:20:51.007Z,99.90
2019-02-07T23:24:49.967Z,99.80
2019-02-07T23:28:48.519Z,99.70
2019-02-07T23:32:48.968Z,99.90
2019-02-07T23:36:47.597Z,99.70
2019-02-07T23:40:46.185Z,99.80
2019-02-07T23:44:45.161Z,99.90
2019-02-07T23:48:44.035Z,99.80
2019-02-07T23:52:43.052Z,99.80
2019-02-07T23:56:41.675Z,99.90
